createdAt,value
2023-03-17T00:01:00.890Z,100919.19
2023-03-17T00:03:33.020Z,100924.56
2023-03-17T00:06:04.507Z,100924.84
2023-03-17T00:08:35.961Z,100903.44
2023-03-17T00:11:18.272Z,100897.53
2023-03-17T00:13:46.156Z,100909.19
2023-03-17T00:16:27.032Z,100925.31
2023-03-17T00:19:01.514Z,100933.84
2023-03-17T00:21:32.627Z,100928.38
2023-03-17T00:26:45.629Z,100924.13
2023-03-17T00:29:16.114Z,100908.59
2023-03-17T00:31:46.488Z,100914.50
2023-03-17T00:34:18.672Z,100912.84
2023-03-17T00:36:57.057Z,100899.00
2023-03-17T00:39:25.432Z,100904.06
2023-03-17T00:42:00.970Z,100914.81
2023-03-17T00:44:27.323Z,100908.75
2023-03-17T00:46:58.656Z,100907.13
2023-03-17T00:49:26.169Z,100901.75
2023-03-17T00:51:53.100Z,100904.50
2023-03-17T00:54:23.270Z,100907.38
2023-03-17T00:56:53.558Z,100908.34
2023-03-17T00:59:44.581Z,100909.97
2023-03-17T01:02:14.556Z,100905.03
2023-03-17T01:04:52.814Z,100904.38
2023-03-17T01:07:25.611Z,100892.13
2023-03-17T01:10:00.043Z,100870.44
2023-03-17T01:15:14.823Z,100860.00
2023-03-17T01:17:42.167Z,100860.00
2023-03-17T01:20:35.188Z,100870.44
2023-03-17T01:23:04.770Z,100882.81
2023-03-17T01:25:32.640Z,100880.88
2023-03-17T01:28:02.175Z,100878.66
2023-03-17T01:30:34.254Z,100883.63
2023-03-17T01:33:08.800Z,100881.00
2023-03-17T01:35:36.790Z,100879.19
2023-03-17T01:38:06.194Z,100879.06
2023-03-17T01:40:49.319Z,100875.63
2023-03-17T01:43:17.683Z,100870.56
2023-03-17T01:46:21.702Z,100869.03
2023-03-17T01:49:20.324Z,100858.59
2023-03-17T01:52:11.450Z,100866.72
2023-03-17T01:54:45.196Z,100866.16
2023-03-17T01:57:36.129Z,100862.34
2023-03-17T02:00:10.126Z,100873.78
2023-03-17T02:02:50.110Z,100851.81
2023-03-17T02:05:31.848Z,100847.84
2023-03-17T02:08:01.702Z,100846.59
2023-03-17T02:10:32.941Z,100836.03
2023-03-17T02:13:05.962Z,100834.38
2023-03-17T02:15:40.369Z,100831.50
2023-03-17T02:18:19.590Z,100841.94
2023-03-17T02:20:47.021Z,100830.81
2023-03-17T02:26:05.133Z,100829.34
2023-03-17T02:28:37.075Z,100839.22
2023-03-17T02:31:04.607Z,100835.25
2023-03-17T02:33:33.896Z,100829.06
2023-03-17T02:36:00.810Z,100828.09
2023-03-17T02:38:27.465Z,100816.72
2023-03-17T02:40:53.850Z,100824.69
2023-03-17T02:46:05.731Z,100816.56
2023-03-17T02:48:36.712Z,100819.03
2023-03-17T02:51:09.238Z,100811.91
2023-03-17T02:53:35.681Z,100818.06
2023-03-17T02:56:02.288Z,100816.44
2023-03-17T02:58:28.658Z,100812.69
2023-03-17T03:00:55.455Z,100823.13
2023-03-17T03:03:22.176Z,100821.22
2023-03-17T03:05:48.556Z,100828.22
2023-03-17T03:08:24.063Z,100826.44
2023-03-17T03:10:50.547Z,100819.97
2023-03-17T03:13:25.857Z,100823.25
2023-03-17T03:15:52.224Z,100823.66
2023-03-17T03:21:03.866Z,100812.09
2023-03-17T03:23:33.727Z,100818.16
2023-03-17T03:26:00.194Z,100818.00
2023-03-17T03:28:26.911Z,100806.59
2023-03-17T03:30:55.792Z,100817.59
2023-03-17T03:33:22.527Z,100822.81
2023-03-17T03:39:00.958Z,100822.53
2023-03-17T03:41:27.399Z,100818.13
2023-03-17T03:43:53.804Z,100831.59
2023-03-17T03:46:26.784Z,100832.94
2023-03-17T03:51:58.995Z,100831.28
2023-03-17T03:54:25.450Z,100823.19
2023-03-17T03:56:51.897Z,100834.97
2023-03-17T03:59:18.548Z,100840.19
2023-03-17T04:01:50.047Z,100823.56
2023-03-17T04:04:16.785Z,100820.81
2023-03-17T04:06:44.412Z,100820.66
2023-03-17T04:09:22.731Z,100814.63
2023-03-17T04:11:51.475Z,100822.00
2023-03-17T04:14:22.064Z,100823.66
2023-03-17T04:16:48.492Z,100829.69
2023-03-17T04:19:15.541Z,100823.66
2023-03-17T04:21:44.328Z,100838.50
2023-03-17T04:24:10.677Z,100841.94
2023-03-17T04:26:42.511Z,100846.34
2023-03-17T04:29:15.571Z,100840.44
2023-03-17T04:31:44.521Z,100842.06
2023-03-17T04:34:18.644Z,100833.00
2023-03-17T04:36:49.153Z,100830.25
2023-03-17T04:39:16.148Z,100827.63
2023-03-17T04:41:42.629Z,100827.50
2023-03-17T04:44:11.665Z,100821.28
2023-03-17T04:46:41.968Z,100832.41
2023-03-17T04:49:16.022Z,100839.28
2023-03-17T04:51:42.372Z,100852.03
2023-03-17T04:54:08.855Z,100839.13
2023-03-17T04:56:39.577Z,100834.59
2023-03-17T04:59:09.120Z,100839.66
2023-03-17T05:01:40.970Z,100839.81
2023-03-17T05:04:12.778Z,100834.44
2023-03-17T05:06:45.901Z,100831.97
2023-03-17T05:09:15.307Z,100833.31
2023-03-17T05:11:48.221Z,100836.75
2023-03-17T05:14:17.820Z,100836.75
2023-03-17T05:16:50.766Z,100851.50
2023-03-17T05:19:20.379Z,100849.69
2023-03-17T05:21:49.615Z,100846.13
2023-03-17T05:24:16.279Z,100845.13
2023-03-17T05:26:42.728Z,100833.06
2023-03-17T05:29:09.771Z,100831.25
2023-03-17T05:31:49.192Z,100838.28
2023-03-17T05:34:18.459Z,100824.41
2023-03-17T05:36:52.082Z,100830.31
2023-03-17T05:39:23.071Z,100825.06
2023-03-17T05:41:52.496Z,100818.88
2023-03-17T05:44:22.931Z,100818.03
2023-03-17T05:46:49.435Z,100822.59
2023-03-17T05:49:16.099Z,100811.34
2023-03-17T05:51:42.554Z,100804.03
2023-03-17T05:54:13.975Z,100793.44
2023-03-17T05:56:40.429Z,100787.91
2023-03-17T05:59:06.814Z,100801.50
2023-03-17T06:01:37.207Z,100795.16
2023-03-17T06:04:06.838Z,100782.47
2023-03-17T06:06:36.753Z,100784.66
2023-03-17T06:09:03.113Z,100801.00
2023-03-17T06:11:29.518Z,100800.84
2023-03-17T06:13:56.144Z,100805.34
2023-03-17T06:16:26.841Z,100813.41
2023-03-17T06:18:53.201Z,100801.00
2023-03-17T06:21:19.541Z,100802.44
2023-03-17T06:23:48.744Z,100802.44
2023-03-17T06:26:18.030Z,100806.97
2023-03-17T06:28:44.350Z,100805.56
2023-03-17T06:31:15.193Z,100810.94
2023-03-17T06:33:41.644Z,100815.72
2023-03-17T06:36:08.821Z,100818.34
2023-03-17T06:41:29.529Z,100816.75
2023-03-17T06:43:58.921Z,100826.19
2023-03-17T06:46:27.934Z,100831.13
2023-03-17T06:48:54.322Z,100833.16
2023-03-17T06:51:33.156Z,100842.72
2023-03-17T06:53:59.571Z,100831.19
2023-03-17T06:56:30.185Z,100826.03
2023-03-17T06:58:57.525Z,100820.03
2023-03-17T07:01:24.114Z,100834.31
2023-03-17T07:03:58.187Z,100827.47
2023-03-17T07:06:24.552Z,100831.78
2023-03-17T07:09:06.877Z,100833.91
2023-03-17T07:11:36.374Z,100817.78
2023-03-17T07:14:06.692Z,100817.16
2023-03-17T07:16:33.236Z,100819.63
2023-03-17T07:19:02.766Z,100809.34
2023-03-17T07:21:32.299Z,100813.13
2023-03-17T07:24:07.335Z,100808.25
2023-03-17T07:26:37.625Z,100813.00
2023-03-17T07:29:08.410Z,100821.53
2023-03-17T07:31:38.530Z,100818.78
2023-03-17T07:34:16.190Z,100812.44
2023-03-17T07:36:42.791Z,100812.94
2023-03-17T07:39:12.187Z,100817.56
2023-03-17T07:41:42.740Z,100829.91
2023-03-17T07:44:11.635Z,100832.50
2023-03-17T07:46:38.968Z,100830.88
2023-03-17T07:49:06.080Z,100825.31
2023-03-17T07:51:32.501Z,100824.81
2023-03-17T07:54:03.686Z,100827.94
2023-03-17T07:56:31.295Z,100818.78
2023-03-17T07:59:00.295Z,100827.81
2023-03-17T08:01:27.917Z,100827.00
2023-03-17T08:03:56.354Z,100821.94
2023-03-17T08:06:34.589Z,100825.69
2023-03-17T08:09:01.015Z,100813.91
2023-03-17T08:11:33.479Z,100812.25
2023-03-17T08:14:01.408Z,100810.28
2023-03-17T08:16:29.255Z,100813.19
2023-03-17T08:19:01.385Z,100814.31
2023-03-17T08:21:28.060Z,100806.91
2023-03-17T08:24:03.953Z,100807.19
2023-03-17T08:26:31.147Z,100812.59
2023-03-17T08:28:58.032Z,100805.28
2023-03-17T08:31:24.884Z,100801.34
2023-03-17T08:33:54.149Z,100805.59
2023-03-17T08:36:24.123Z,100799.78
2023-03-17T08:38:54.234Z,100803.03
2023-03-17T08:41:26.559Z,100800.22
2023-03-17T08:43:55.495Z,100800.78
2023-03-17T08:46:30.136Z,100807.75
2023-03-17T08:49:00.900Z,100808.16
2023-03-17T08:51:36.632Z,100803.81
2023-03-17T08:54:04.063Z,100812.53
2023-03-17T08:56:30.490Z,100812.28
2023-03-17T08:59:00.902Z,100805.66
2023-03-17T09:01:27.496Z,100804.41
2023-03-17T09:03:55.082Z,100795.66
2023-03-17T09:06:25.539Z,100802.59
2023-03-17T09:08:55.806Z,100802.84
2023-03-17T09:11:30.769Z,100799.84
2023-03-17T09:13:57.264Z,100802.06
2023-03-17T09:16:25.409Z,100799.69
2023-03-17T09:18:51.858Z,100792.00
2023-03-17T09:21:18.555Z,100795.19
2023-03-17T09:23:44.896Z,100799.75
2023-03-17T09:26:20.685Z,100803.75
2023-03-17T09:28:47.380Z,100809.72
2023-03-17T09:31:13.781Z,100810.91
2023-03-17T09:33:45.036Z,100813.72
2023-03-17T09:36:11.999Z,100810.47
2023-03-17T09:38:47.716Z,100808.00
2023-03-17T09:41:23.849Z,100806.47
2023-03-17T09:44:12.558Z,100818.19
2023-03-17T09:49:58.599Z,100821.47
2023-03-17T09:52:34.183Z,100816.84
2023-03-17T09:55:03.595Z,100813.44
2023-03-17T09:57:39.131Z,100820.81
2023-03-17T10:00:35.079Z,100822.78
2023-03-17T10:03:01.871Z,100819.41
2023-03-17T10:05:34.223Z,100827.06
2023-03-17T10:08:31.705Z,100823.22
2023-03-17T10:11:06.760Z,100829.41
2023-03-17T10:14:08.376Z,100829.41
2023-03-17T10:17:04.804Z,100831.53
2023-03-17T10:20:11.917Z,100826.25
2023-03-17T10:22:53.543Z,100828.94
2023-03-17T10:25:25.703Z,100833.84
2023-03-17T10:28:01.134Z,100834.03
2023-03-17T10:30:30.799Z,100844.81
2023-03-17T10:33:03.644Z,100854.50
2023-03-17T10:35:43.220Z,100848.63
2023-03-17T10:38:23.307Z,100853.84
2023-03-17T10:41:02.644Z,100852.09
2023-03-17T10:43:38.388Z,100852.16
2023-03-17T10:46:44.623Z,100864.94
2023-03-17T10:49:17.376Z,100880.97
2023-03-17T10:51:50.751Z,100872.06
2023-03-17T10:54:19.025Z,100865.34
2023-03-17T10:56:52.507Z,100856.03
2023-03-17T10:59:34.025Z,100861.06
2023-03-17T11:02:08.282Z,100852.91
2023-03-17T11:04:41.728Z,100842.66
2023-03-17T11:07:20.276Z,100837.56
2023-03-17T11:10:02.643Z,100837.34
2023-03-17T11:12:36.821Z,100824.31
2023-03-17T11:15:15.147Z,100836.78
2023-03-17T11:18:04.558Z,100821.97
2023-03-17T11:20:49.435Z,100827.06
2023-03-17T11:26:52.214Z,100821.41
2023-03-17T11:29:50.704Z,100819.16
2023-03-17T11:32:52.028Z,100806.31
2023-03-17T11:35:48.991Z,100797.19
2023-03-17T11:38:39.650Z,100806.16
2023-03-17T11:41:41.620Z,100792.53
2023-03-17T11:44:33.526Z,100796.00
2023-03-17T11:47:42.993Z,100810.66
2023-03-17T11:50:37.781Z,100798.03
2023-03-17T11:53:45.360Z,100808.63
2023-03-17T11:56:31.148Z,100801.25
2023-03-17T11:59:05.935Z,100806.75
2023-03-17T12:02:14.071Z,100804.09
2023-03-17T12:04:54.534Z,100816.53
2023-03-17T12:07:50.577Z,100812.69
2023-03-17T12:10:46.367Z,100819.81
2023-03-17T12:13:36.216Z,100806.72
2023-03-17T12:16:27.145Z,100797.16
2023-03-17T12:19:17.300Z,100787.09
2023-03-17T12:22:13.916Z,100782.03
2023-03-17T12:25:06.747Z,100779.44
2023-03-17T12:27:49.574Z,100775.31
2023-03-17T12:33:47.185Z,100769.47
2023-03-17T12:39:10.650Z,100762.66
2023-03-17T12:42:06.429Z,100759.63
2023-03-17T12:44:58.121Z,100757.53
2023-03-17T12:47:39.140Z,100757.53
2023-03-17T12:50:38.170Z,100749.97
2023-03-17T12:53:16.542Z,100757.53
2023-03-17T12:55:47.253Z,100759.38
2023-03-17T12:58:35.716Z,100758.78
2023-03-17T13:01:14.562Z,100765.53
2023-03-17T13:04:04.271Z,100749.00
2023-03-17T13:06:37.643Z,100756.31
2023-03-17T13:09:40.747Z,100766.13
2023-03-17T13:12:34.870Z,100766.09
2023-03-17T13:15:29.304Z,100770.91
2023-03-17T13:18:13.879Z,100772.19
2023-03-17T13:21:03.697Z,100769.34
2023-03-17T13:23:49.675Z,100772.28
2023-03-17T13:26:21.664Z,100767.03
2023-03-17T13:28:53.739Z,100763.97
2023-03-17T13:31:33.257Z,100766.00
2023-03-17T13:34:13.192Z,100766.00
2023-03-17T13:37:06.887Z,100768.22
2023-03-17T13:40:07.973Z,100761.66
2023-03-17T13:42:55.802Z,100763.94
2023-03-17T13:45:42.343Z,100765.56
2023-03-17T13:48:30.528Z,100760.88
2023-03-17T13:51:14.501Z,100761.66
2023-03-17T13:57:17.203Z,100740.66
2023-03-17T14:00:21.705Z,100731.94
2023-03-17T14:03:02.135Z,100740.47
2023-03-17T14:05:42.722Z,100727.59
2023-03-17T14:08:33.878Z,100747.38
2023-03-17T14:11:06.420Z,100750.66
2023-03-17T14:14:05.408Z,100754.31
2023-03-17T14:16:36.356Z,100738.81
2023-03-17T14:19:23.290Z,100747.56
2023-03-17T14:21:53.259Z,100743.13
2023-03-17T14:24:33.193Z,100746.59
2023-03-17T14:27:09.432Z,100741.50
2023-03-17T14:29:37.368Z,100741.25
2023-03-17T14:32:19.815Z,100726.94
2023-03-17T14:34:59.252Z,100727.56
2023-03-17T14:37:31.952Z,100727.16
2023-03-17T14:40:01.726Z,100728.34
2023-03-17T14:45:29.639Z,100723.91
2023-03-17T14:47:59.314Z,100719.00
2023-03-17T14:50:31.808Z,100716.16
2023-03-17T14:53:24.031Z,100709.66
2023-03-17T14:55:52.612Z,100707.59
2023-03-17T14:58:25.067Z,100708.63
2023-03-17T15:01:16.532Z,100704.16
2023-03-17T15:04:07.205Z,100703.94
2023-03-17T15:06:59.196Z,100707.03
2023-03-17T15:09:39.462Z,100710.88
2023-03-17T15:12:19.117Z,100704.19
2023-03-17T15:14:48.973Z,100707.81
2023-03-17T15:17:30.167Z,100704.19
2023-03-17T15:20:04.843Z,100702.16
2023-03-17T15:22:31.178Z,100699.91
2023-03-17T15:25:31.260Z,100698.66
2023-03-17T15:28:03.417Z,100697.22
2023-03-17T15:30:44.316Z,100694.75
2023-03-17T15:33:37.127Z,100694.44
2023-03-17T15:36:07.658Z,100689.53
2023-03-17T15:38:34.351Z,100683.81
2023-03-17T15:41:00.796Z,100683.84
2023-03-17T15:43:36.513Z,100680.41
2023-03-17T15:46:17.033Z,100677.97
2023-03-17T15:48:43.453Z,100684.06
2023-03-17T15:51:13.175Z,100687.97
2023-03-17T15:53:42.778Z,100678.41
2023-03-17T15:56:18.920Z,100677.59
2023-03-17T15:58:54.532Z,100680.84
2023-03-17T16:01:21.556Z,100671.69
2023-03-17T16:03:48.782Z,100679.84
2023-03-17T16:06:35.476Z,100669.88
2023-03-17T16:09:14.821Z,100675.78
2023-03-17T16:11:44.053Z,100669.28
2023-03-17T16:14:13.457Z,100680.94
2023-03-17T16:16:47.555Z,100675.84
2023-03-17T16:19:20.146Z,100680.75
2023-03-17T16:21:58.666Z,100686.25
2023-03-17T16:27:32.620Z,100693.38
2023-03-17T16:30:02.272Z,100693.38
2023-03-17T16:32:28.857Z,100683.81
2023-03-17T16:37:38.865Z,100694.41
2023-03-17T16:40:20.346Z,100686.03
2023-03-17T16:42:50.781Z,100695.38
2023-03-17T16:45:32.863Z,100689.25
2023-03-17T16:48:04.850Z,100694.53
2023-03-17T16:50:34.338Z,100698.41
2023-03-17T16:53:00.696Z,100699.00
2023-03-17T16:55:30.963Z,100704.28
2023-03-17T16:58:01.227Z,100698.97
2023-03-17T17:00:37.828Z,100702.41
2023-03-17T17:03:04.268Z,100704.63
2023-03-17T17:05:31.530Z,100705.25
2023-03-17T17:07:59.016Z,100716.22
2023-03-17T17:13:21.299Z,100713.34
2023-03-17T17:15:47.698Z,100712.91
2023-03-17T17:18:24.238Z,100707.19
2023-03-17T17:20:52.198Z,100707.78
2023-03-17T17:23:21.961Z,100697.00
2023-03-17T17:25:51.563Z,100696.56
2023-03-17T17:28:21.326Z,100706.28
2023-03-17T17:30:54.286Z,100704.44
2023-03-17T17:33:21.741Z,100711.94
2023-03-17T17:35:52.373Z,100711.50
2023-03-17T17:41:14.990Z,100725.69
2023-03-17T17:43:46.041Z,100718.78
2023-03-17T17:46:17.924Z,100732.97
2023-03-17T17:48:48.137Z,100720.13
2023-03-17T17:51:18.075Z,100713.81
2023-03-17T17:53:47.150Z,100719.47
2023-03-17T17:56:18.957Z,100721.88
2023-03-17T17:58:46.468Z,100714.53
2023-03-17T18:01:16.753Z,100714.28
2023-03-17T18:03:47.636Z,100713.06
2023-03-17T18:06:17.921Z,100712.16
2023-03-17T18:08:50.837Z,100709.09
2023-03-17T18:11:19.049Z,100717.59
2023-03-17T18:13:45.418Z,100715.31
2023-03-17T18:16:21.028Z,100705.78
2023-03-17T18:18:47.467Z,100706.38
2023-03-17T18:21:22.159Z,100712.63
2023-03-17T18:23:49.846Z,100709.38
2023-03-17T18:26:19.759Z,100714.28
2023-03-17T18:28:49.923Z,100711.00
2023-03-17T18:31:33.903Z,100712.22
2023-03-17T18:34:25.894Z,100713.19
2023-03-17T18:36:53.928Z,100710.31
2023-03-17T18:39:20.742Z,100722.88
2023-03-17T18:41:49.707Z,100720.25
2023-03-17T18:44:16.717Z,100711.72
2023-03-17T18:46:43.819Z,100718.97
2023-03-17T18:49:12.710Z,100712.09
2023-03-17T18:51:42.401Z,100710.47
2023-03-17T18:54:08.942Z,100709.00
2023-03-17T18:56:38.337Z,100712.84
2023-03-17T18:59:04.766Z,100708.94
2023-03-17T19:01:31.152Z,100710.97
2023-03-17T19:04:07.359Z,100715.41
2023-03-17T19:06:35.639Z,100715.97
2023-03-17T19:09:11.594Z,100717.53
2023-03-17T19:11:46.822Z,100711.38
2023-03-17T19:14:14.033Z,100713.38
2023-03-17T19:16:40.926Z,100713.84
2023-03-17T19:19:16.518Z,100703.47
2023-03-17T19:21:43.271Z,100706.13
2023-03-17T19:26:56.733Z,100713.50
2023-03-17T19:29:27.751Z,100709.25
2023-03-17T19:31:56.598Z,100716.09
2023-03-17T19:34:27.098Z,100712.81
2023-03-17T19:37:03.423Z,100707.34
2023-03-17T19:39:33.421Z,100708.38
2023-03-17T19:42:02.909Z,100710.19
2023-03-17T19:44:32.049Z,100705.53
2023-03-17T19:46:58.471Z,100704.91
2023-03-17T19:49:37.552Z,100707.91
2023-03-17T19:52:08.321Z,100716.81
2023-03-17T19:54:38.165Z,100708.91
2023-03-17T19:57:08.349Z,100707.44
2023-03-17T19:59:42.458Z,100710.91
2023-03-17T20:02:15.269Z,100709.88
2023-03-17T20:04:41.723Z,100721.28
2023-03-17T20:07:08.603Z,100718.47
2023-03-17T20:09:47.978Z,100716.00
2023-03-17T20:12:15.514Z,100720.41
2023-03-17T20:14:48.698Z,100730.81
2023-03-17T20:17:15.360Z,100729.97
2023-03-17T20:19:44.584Z,100735.25
2023-03-17T20:22:13.816Z,100733.25
2023-03-17T20:24:42.343Z,100734.72
2023-03-17T20:27:17.447Z,100732.69
2023-03-17T20:29:59.353Z,100728.59
2023-03-17T20:32:32.134Z,100728.25
2023-03-17T20:34:58.537Z,100737.25
2023-03-17T20:37:24.993Z,100739.53
2023-03-17T20:39:57.502Z,100743.97
2023-03-17T20:42:28.084Z,100746.22
2023-03-17T20:44:58.078Z,100750.91
2023-03-17T20:47:28.222Z,100746.00
2023-03-17T20:50:00.909Z,100759.91
2023-03-17T20:52:30.571Z,100764.09
2023-03-17T20:55:02.143Z,100767.75
2023-03-17T20:57:33.086Z,100767.31
2023-03-17T20:59:59.622Z,100759.78
2023-03-17T21:02:29.363Z,100769.84
2023-03-17T21:04:55.773Z,100774.31
2023-03-17T21:07:22.348Z,100772.88
2023-03-17T21:09:58.000Z,100773.69
2023-03-17T21:12:25.427Z,100766.16
2023-03-17T21:14:55.223Z,100779.34
2023-03-17T21:17:24.932Z,100780.31
2023-03-17T21:19:59.079Z,100781.50
2023-03-17T21:22:25.668Z,100786.13
2023-03-17T21:24:55.411Z,100791.56
2023-03-17T21:27:22.571Z,100789.28
2023-03-17T21:29:52.261Z,100798.41
2023-03-17T21:32:18.932Z,100795.75
2023-03-17T21:34:50.649Z,100794.09
2023-03-17T21:37:18.228Z,100795.13
2023-03-17T21:39:50.480Z,100788.66
2023-03-17T21:42:16.900Z,100788.22
2023-03-17T21:44:45.668Z,100789.19
2023-03-17T21:47:17.580Z,100786.75
2023-03-17T21:49:44.238Z,100800.75
2023-03-17T21:52:16.343Z,100806.03
2023-03-17T21:54:42.793Z,100804.19
2023-03-17T21:57:09.340Z,100802.38
2023-03-17T21:59:39.597Z,100809.81
2023-03-17T22:02:12.445Z,100809.03
2023-03-17T22:04:41.751Z,100810.00
2023-03-17T22:07:13.103Z,100804.13
2023-03-17T22:09:43.741Z,100801.66
2023-03-17T22:12:13.657Z,100802.81
2023-03-17T22:14:47.824Z,100798.94
2023-03-17T22:17:17.273Z,100814.91
2023-03-17T22:19:51.491Z,100810.81
2023-03-17T22:22:21.887Z,100808.38
2023-03-17T22:27:35.922Z,100805.81
2023-03-17T22:30:06.336Z,100813.09
2023-03-17T22:32:33.903Z,100821.97
2023-03-17T22:35:06.517Z,100828.72
2023-03-17T22:37:33.826Z,100825.59
2023-03-17T22:40:10.083Z,100832.88
2023-03-17T22:42:36.553Z,100833.22
2023-03-17T22:45:13.226Z,100849.84
2023-03-17T22:47:39.963Z,100836.69
2023-03-17T22:50:10.323Z,100832.44
2023-03-17T22:52:41.055Z,100840.50
2023-03-17T22:55:15.840Z,100838.84
2023-03-17T22:57:42.234Z,100843.28
2023-03-17T23:00:20.394Z,100844.28
2023-03-17T23:02:47.260Z,100844.66
2023-03-17T23:05:23.039Z,100848.28
2023-03-17T23:07:51.597Z,100844.00
2023-03-17T23:10:26.402Z,100847.66
2023-03-17T23:12:52.826Z,100850.63
2023-03-17T23:15:21.272Z,100853.63
2023-03-17T23:17:50.708Z,100848.53
2023-03-17T23:20:26.574Z,100845.44
2023-03-17T23:22:52.940Z,100842.88
2023-03-17T23:25:19.715Z,100842.31
2023-03-17T23:27:49.393Z,100843.16
2023-03-17T23:30:19.274Z,100848.50
2023-03-17T23:32:48.241Z,100839.94
2023-03-17T23:35:15.329Z,100844.56
2023-03-17T23:37:41.990Z,100842.28
2023-03-17T23:40:17.259Z,100828.84
2023-03-17T23:42:50.879Z,100828.56
2023-03-17T23:45:19.856Z,100827.25
2023-03-17T23:47:51.534Z,100821.50
2023-03-17T23:50:22.169Z,100827.94
2023-03-17T23:52:51.671Z,100833.38
2023-03-17T23:55:19.107Z,100836.19
2023-03-17T23:57:47.133Z,100845.88
